Nearby METAR Reports

 

KAIG - Antigo/Langlade, Wisconsin, USA
Distance from station: SSW 28mi, 46km
Updated: 10/21/2017 2:55am
Clear
Clear
 Wind from SSE
Wind: SSE 7 mph , 11 km/h
Temperature: 52°F , 11°C
Dew Point: 46°F , 8°C
Humidity: 82%
Barometer: 29.94 inHg , 1013.9 hPa
Clouds: Clear
Visibility: 10 miles , 16 km
2017/10/21 07:55 KAIG 210755Z AUTO 15006KT 10SM CLR 11/08 A2994 RMK AO2 T01050076
KRHI - Rhinelander, Wisconsin, USA
Distance from station: WNW 32mi, 51km
Updated: 10/21/2017 2:53am
Few Clouds
Few Clouds
 Wind from S
Wind: S 8 mph , 13 km/h
Temperature: 63°F , 17°C
Dew Point: 45°F , 7°C
Humidity: 52%
Barometer: 29.90 inHg , 1012.5 hPa
Clouds: Few Clouds
Visibility: 10 miles , 16 km
Cloud details: Few Clouds 12000 ft
2017/10/21 07:53 KRHI 210753Z AUTO 19007KT 10SM FEW120 17/07 A2990 RMK AO2 SLP119 T01670072
 
KEGV - Eagle River, Wisconsin, USA
Distance from station: NW 35mi, 57km
Updated: 10/21/2017 2:15am
Clear
Clear
 Wind from S
Wind: S 3 mph , 6 km/h
Temperature: 61°F , 16°C
Dew Point: 43°F , 6°C
Humidity: 52%
Barometer: 29.89 inHg , 1012.2 hPa
Clouds: Clear
Visibility: 10 miles , 16 km
2017/10/21 07:15 KEGV 210715Z AUTO 19003KT 10SM CLR 16/06 A2989 RMK AO2 T01570055
KIMT - Iron Mountain, Michigan, USA
Distance from station: ENE 41mi, 66km
Updated: 10/21/2017 2:54am
Clear
Clear
 Wind from SSE
Wind: SSE 7 mph , 11 km/h
Temperature: 57°F , 14°C
Dew Point: 46°F , 8°C
Humidity: 67%
Barometer: 29.92 inHg , 1013.2 hPa
Clouds: Clear
Visibility: 10 miles , 16 km
2017/10/21 07:54 KIMT 210754Z AUTO 16006KT 10SM CLR 14/08 A2992 RMK AO2 SLP129 T01390078
 
KLNL - Land O Lakes, Wisconsin, USA
Distance from station: NNW 47mi, 76km
Updated: 10/21/2017 2:55am
Clear
Clear
 Wind from S
Wind: S 5 mph , 7 km/h
Temperature: 59°F , 15°C
Dew Point: 43°F , 6°C
Humidity: 55%
Barometer: 29.90 inHg , 1012.5 hPa
Clouds: Clear
Visibility: 10 miles , 16 km
2017/10/21 07:55 KLNL 210755Z AUTO 19004KT 10SM CLR 15/06 A2990 RMK AO2 T01510062
KRRL - Merrill, Wisconsin, USA
Distance from station: WSW 47mi, 76km
Updated: 10/21/2017 2:55am
Clear
Clear
 Wind from S
Wind: S 5 mph , 7 km/h
Temperature: 61°F , 16°C
Dew Point: 46°F , 8°C
Humidity: 59%
Barometer: 29.90 inHg , 1012.5 hPa
Clouds: Clear
Visibility: 10 miles , 16 km
2017/10/21 07:55 KRRL 210755Z AUTO 17004KT 10SM CLR 16/08 A2990 RMK AO2 T01590075
 
KTKV - Tomahawk Regnl, Wisconsin, USA
Distance from station: W 47mi, 76km
Updated: 10/21/2017 2:55am
Clear
Clear
 Wind from calm
Wind: Calm
Temperature: 57°F , 14°C
Dew Point: 45°F , 7°C
Humidity: 63%
Barometer: 29.89 inHg , 1012.2 hPa
Clouds: Clear
Visibility: 10 miles , 16 km
2017/10/21 07:55 KTKV 210755Z AUTO 00000KT 10SM CLR 14/07 A2989 RMK AO2 T01390070
KARV - Minocqua/Woodruf, Wisconsin, USA
Distance from station: WNW 50mi, 81km
Updated: 10/21/2017 2:55am
Partly cloudy
Partly cloudy
 Wind from S
Wind: S 9 mph , 15 km/h
Temperature: 63°F , 17°C
Dew Point: 46°F , 8°C
Humidity: 56%
Barometer: 29.87 inHg , 1011.5 hPa
Clouds: Partly cloudy
Visibility: 10 miles , 16 km
Cloud details: Partly cloudy 12000 ft
2017/10/21 07:55 KARV 210755Z AUTO 18008KT 10SM SCT120 17/08 A2987 RMK AO2 T01660078